createdAt,value
2018-05-04T00:02:17.830Z,7.93
2018-05-04T00:04:46.850Z,7.33
2018-05-04T00:07:15.129Z,9.37
2018-05-04T00:09:43.369Z,10.17
2018-05-04T00:12:12.392Z,9.37
2018-05-04T00:14:40.692Z,8.90
2018-05-04T00:17:09.256Z,8.20
2018-05-04T00:19:37.528Z,7.43
2018-05-04T00:22:05.776Z,8.53
2018-05-04T00:24:34.808Z,12.50
2018-05-04T00:27:03.037Z,11.60
2018-05-04T00:29:32.090Z,8.00
2018-05-04T00:32:00.327Z,13.03
2018-05-04T00:34:30.290Z,9.93
2018-05-04T00:36:58.589Z,10.23
2018-05-04T00:39:26.916Z,11.97
2018-05-04T00:41:55.218Z,10.47
2018-05-04T00:44:23.495Z,10.37
2018-05-04T00:46:51.788Z,10.70
2018-05-04T00:49:20.045Z,8.70
2018-05-04T00:51:49.426Z,11.33
2018-05-04T00:54:23.083Z,11.33
2018-05-04T00:56:52.167Z,12.93
2018-05-04T00:59:20.440Z,13.23
2018-05-04T01:01:49.593Z,11.87
2018-05-04T01:04:17.909Z,14.20
2018-05-04T01:06:46.216Z,15.80
2018-05-04T01:09:15.262Z,14.63
2018-05-04T01:11:43.526Z,14.60
2018-05-04T01:14:11.798Z,7.30
2018-05-04T01:16:40.087Z,13.53
2018-05-04T01:19:08.368Z,14.90
2018-05-04T01:21:36.658Z,12.33
2018-05-04T01:24:04.905Z,14.77
2018-05-04T01:26:34.281Z,9.03
2018-05-04T01:29:03.260Z,10.33
2018-05-04T01:31:32.412Z,10.43
2018-05-04T01:34:00.663Z,13.63
2018-05-04T01:36:30.181Z,16.17
2018-05-04T01:38:58.448Z,14.73
2018-05-04T01:41:26.729Z,13.23
2018-05-04T01:43:54.969Z,15.47
2018-05-04T01:46:24.155Z,12.70
2018-05-04T01:48:53.187Z,15.85
2018-05-04T01:51:21.441Z,15.60
2018-05-04T01:53:49.741Z,14.27
2018-05-04T01:56:18.007Z,15.97
2018-05-04T01:58:46.282Z,15.67
2018-05-04T02:01:14.534Z,15.47
2018-05-04T02:03:43.567Z,14.97
2018-05-04T02:06:11.854Z,12.40
2018-05-04T02:08:40.146Z,14.73
2018-05-04T02:11:08.473Z,17.13
2018-05-04T02:13:36.782Z,19.10
2018-05-04T02:16:05.091Z,13.40
2018-05-04T02:18:33.351Z,17.40
2018-05-04T02:21:01.607Z,14.40
2018-05-04T02:23:29.886Z,14.10
2018-05-04T02:25:58.167Z,10.80
2018-05-04T02:28:26.440Z,17.30
2018-05-04T02:30:54.745Z,15.27
2018-05-04T02:33:23.138Z,14.17
2018-05-04T02:35:51.415Z,20.13
2018-05-04T02:38:20.461Z,15.63
2018-05-04T02:40:48.778Z,13.63
2018-05-04T02:43:17.055Z,9.90
2018-05-04T02:45:47.967Z,15.77
2018-05-04T02:48:16.250Z,13.20
2018-05-04T02:50:44.490Z,15.93
2018-05-04T02:53:12.811Z,19.70
2018-05-04T02:55:41.079Z,22.60
2018-05-04T02:58:09.348Z,16.23
2018-05-04T03:00:38.377Z,15.10
2018-05-04T03:03:08.110Z,11.47
2018-05-04T03:05:36.408Z,17.10
2018-05-04T03:08:04.654Z,12.80
2018-05-04T03:10:33.674Z,14.53
2018-05-04T03:13:01.958Z,16.33
2018-05-04T03:15:30.184Z,14.07
2018-05-04T03:17:59.233Z,17.17
2018-05-04T03:20:27.504Z,11.47
2018-05-04T03:22:55.749Z,10.20
2018-05-04T03:25:24.073Z,12.47
2018-05-04T03:27:52.343Z,10.60
2018-05-04T03:30:20.596Z,10.57
2018-05-04T03:32:48.876Z,12.13
2018-05-04T03:35:17.930Z,10.27
2018-05-04T03:37:46.173Z,11.10
2018-05-04T03:40:14.458Z,7.83
2018-05-04T03:42:42.713Z,9.60
2018-05-04T03:45:11.758Z,10.43
2018-05-04T03:47:40.025Z,11.07
2018-05-04T03:50:09.635Z,8.73
2018-05-04T03:52:37.885Z,10.13
2018-05-04T03:55:08.249Z,10.73
2018-05-04T03:57:49.163Z,13.20
2018-05-04T04:00:29.259Z,10.77
2018-05-04T04:03:10.132Z,11.73
2018-05-04T04:05:39.200Z,14.77
2018-05-04T04:08:09.073Z,11.43
2018-05-04T04:10:37.343Z,14.63
2018-05-04T04:13:06.426Z,13.33
2018-05-04T04:15:35.468Z,15.13
2018-05-04T04:18:03.773Z,12.43
2018-05-04T04:20:31.988Z,10.13
2018-05-04T04:23:00.311Z,12.37
2018-05-04T04:25:30.148Z,10.23
2018-05-04T04:27:59.206Z,13.43
2018-05-04T04:30:27.431Z,10.40
2018-05-04T04:32:55.720Z,13.87
2018-05-04T04:35:23.967Z,11.80
2018-05-04T04:37:53.006Z,12.07
2018-05-04T04:40:21.280Z,12.40
2018-05-04T04:42:49.586Z,18.10
2018-05-04T04:45:17.860Z,9.80
2018-05-04T04:47:46.146Z,10.63
2018-05-04T04:50:15.652Z,17.67
2018-05-04T04:52:43.893Z,17.23
2018-05-04T04:55:12.186Z,13.27
2018-05-04T04:57:40.476Z,16.13
2018-05-04T05:00:08.766Z,15.37
2018-05-04T05:02:37.042Z,14.27
2018-05-04T05:05:06.186Z,11.67
2018-05-04T05:07:34.488Z,14.37
2018-05-04T05:10:02.746Z,12.63
2018-05-04T05:12:30.983Z,9.97
2018-05-04T05:15:00.044Z,10.77
2018-05-04T05:17:28.328Z,9.40
2018-05-04T05:19:56.579Z,10.57
2018-05-04T05:22:24.842Z,11.20
2018-05-04T05:24:53.130Z,7.73
2018-05-04T05:27:21.424Z,11.38
2018-05-04T05:29:49.706Z,11.90
2018-05-04T05:32:17.989Z,11.30
2018-05-04T05:34:47.060Z,17.02
2018-05-04T05:37:15.350Z,15.50
2018-05-04T05:39:43.659Z,12.40
2018-05-04T05:42:11.892Z,11.30
2018-05-04T05:44:40.184Z,11.18
2018-05-04T05:47:08.636Z,9.60
2018-05-04T05:49:36.906Z,9.23
2018-05-04T05:52:05.179Z,7.10
2018-05-04T05:54:33.551Z,12.65
2018-05-04T05:57:02.549Z,10.88
2018-05-04T05:59:33.272Z,9.38
2018-05-04T06:02:01.527Z,8.98
2018-05-04T06:04:30.556Z,9.27
2018-05-04T06:06:58.871Z,9.98
2018-05-04T06:09:27.377Z,10.18
2018-05-04T06:11:55.431Z,7.50
2018-05-04T06:14:23.693Z,8.80
2018-05-04T06:16:53.654Z,7.75
2018-05-04T06:19:22.167Z,6.87
2018-05-04T06:21:50.419Z,8.38
2018-05-04T06:24:18.687Z,6.20
2018-05-04T06:26:47.024Z,7.50
2018-05-04T06:29:15.261Z,10.95
2018-05-04T06:31:43.529Z,6.90
2018-05-04T06:34:11.808Z,7.12
2018-05-04T06:36:40.093Z,7.80
2018-05-04T06:39:08.355Z,10.38
2018-05-04T06:41:36.677Z,5.77
2018-05-04T06:44:06.190Z,8.60
2018-05-04T06:46:34.464Z,7.37
2018-05-04T06:49:02.698Z,6.80
2018-05-04T06:51:32.128Z,7.82
2018-05-04T06:54:01.694Z,8.63
2018-05-04T06:56:29.922Z,8.70
2018-05-04T06:58:58.980Z,6.85
2018-05-04T07:01:27.235Z,6.80
2018-05-04T07:03:55.540Z,8.35
2018-05-04T07:06:23.828Z,5.97
2018-05-04T07:08:52.130Z,7.65
2018-05-04T07:11:21.160Z,6.72
2018-05-04T07:13:49.511Z,7.05
2018-05-04T07:16:18.570Z,5.72
2018-05-04T07:18:46.810Z,6.75
2018-05-04T07:21:15.072Z,6.18
2018-05-04T07:23:43.406Z,6.00
2018-05-04T07:26:12.174Z,6.75
2018-05-04T07:28:40.472Z,5.18
2018-05-04T07:31:08.844Z,3.85
2018-05-04T07:33:37.112Z,6.30
2018-05-04T07:36:06.244Z,7.05
2018-05-04T07:38:35.277Z,5.93
2018-05-04T07:41:03.577Z,7.18
2018-05-04T07:43:31.898Z,5.80
2018-05-04T07:46:00.924Z,7.85
2018-05-04T07:48:29.206Z,4.78
2018-05-04T07:50:57.480Z,5.37
2018-05-04T07:53:25.820Z,4.75
2018-05-04T07:55:54.032Z,5.60
2018-05-04T07:58:22.308Z,5.22
2018-05-04T08:00:52.304Z,5.75
2018-05-04T08:03:20.568Z,6.18
2018-05-04T08:05:49.580Z,4.87
2018-05-04T08:08:17.906Z,4.43
2018-05-04T08:10:46.163Z,4.32
2018-05-04T08:13:14.896Z,5.03
2018-05-04T08:15:43.960Z,4.73
2018-05-04T08:18:12.197Z,4.18
2018-05-04T08:20:40.491Z,5.50
2018-05-04T08:23:08.760Z,6.53
2018-05-04T08:25:37.049Z,8.80
2018-05-04T08:28:05.315Z,6.93
2018-05-04T08:30:33.607Z,6.40
2018-05-04T08:33:01.840Z,4.12
2018-05-04T08:35:31.077Z,6.40
2018-05-04T08:37:59.335Z,9.25
2018-05-04T08:40:27.595Z,14.82
2018-05-04T08:42:55.981Z,6.50
2018-05-04T08:45:24.151Z,6.82
2018-05-04T08:47:52.441Z,8.13
2018-05-04T08:50:20.728Z,5.32
2018-05-04T08:52:50.011Z,4.62
2018-05-04T08:55:18.309Z,6.32
2018-05-04T08:57:46.554Z,6.18
2018-05-04T09:00:14.836Z,6.63
2018-05-04T09:02:44.247Z,5.87
2018-05-04T09:05:12.574Z,7.40
2018-05-04T09:07:40.814Z,6.00
2018-05-04T09:10:09.042Z,4.93
2018-05-04T09:12:38.070Z,6.43
2018-05-04T09:15:06.361Z,14.33
2018-05-04T09:17:35.411Z,5.63
2018-05-04T09:20:04.399Z,6.03
2018-05-04T09:22:34.249Z,6.93
2018-05-04T09:25:02.492Z,5.70
2018-05-04T09:27:30.726Z,4.60
2018-05-04T09:29:59.005Z,4.90
2018-05-04T09:32:27.318Z,3.63
2018-05-04T09:34:56.719Z,4.22
2018-05-04T09:37:24.973Z,2.83
2018-05-04T09:39:53.249Z,4.87
2018-05-04T09:42:21.552Z,7.17
2018-05-04T09:44:49.981Z,4.60
2018-05-04T09:47:18.250Z,4.15
2018-05-04T09:49:46.574Z,3.57
2018-05-04T09:52:15.571Z,4.03
2018-05-04T09:54:44.569Z,4.45
2018-05-04T09:57:12.836Z,4.20
2018-05-04T09:59:41.871Z,5.80
2018-05-04T10:02:10.146Z,4.82
2018-05-04T10:04:38.518Z,3.90
2018-05-04T10:07:06.824Z,3.37
2018-05-04T10:12:09.254Z,4.22
2018-05-04T10:14:37.529Z,3.20
2018-05-04T10:17:06.558Z,4.60
2018-05-04T10:19:35.641Z,4.28
2018-05-04T10:22:03.994Z,5.28
2018-05-04T10:24:32.193Z,3.65
2018-05-04T10:27:00.480Z,6.05
2018-05-04T10:29:28.727Z,3.72
2018-05-04T10:31:57.059Z,3.47
2018-05-04T10:34:25.340Z,3.85
2018-05-04T10:36:53.691Z,4.55
2018-05-04T10:39:21.979Z,4.12
2018-05-04T10:41:54.077Z,4.37
2018-05-04T10:44:23.868Z,5.85
2018-05-04T10:46:52.128Z,2.67
2018-05-04T10:49:20.360Z,2.65
2018-05-04T10:51:48.640Z,3.55
2018-05-04T10:54:16.920Z,3.60
2018-05-04T10:56:45.189Z,7.18
2018-05-04T10:59:13.468Z,4.93
2018-05-04T11:01:43.047Z,4.22
2018-05-04T11:04:11.283Z,3.20
2018-05-04T11:06:39.566Z,3.67
2018-05-04T11:09:07.837Z,3.42
2018-05-04T11:11:37.399Z,3.53
2018-05-04T11:14:06.228Z,3.72
2018-05-04T11:16:34.508Z,4.18
2018-05-04T11:19:02.780Z,3.20
2018-05-04T11:21:31.092Z,2.47
2018-05-04T11:23:59.337Z,4.20
2018-05-04T11:26:27.606Z,4.75
2018-05-04T11:28:55.883Z,4.87
2018-05-04T11:31:25.214Z,4.53
2018-05-04T11:33:53.468Z,3.75
2018-05-04T11:36:21.718Z,4.07
2018-05-04T11:38:50.039Z,5.85
2018-05-04T11:41:18.250Z,2.85
2018-05-04T11:43:46.512Z,3.00
2018-05-04T11:46:15.559Z,3.80
2018-05-04T11:48:43.865Z,4.25
2018-05-04T11:51:12.123Z,3.15
2018-05-04T11:53:41.176Z,6.05
2018-05-04T11:56:09.448Z,3.78
2018-05-04T11:58:37.721Z,3.37
2018-05-04T12:01:06.017Z,3.40
2018-05-04T12:03:34.846Z,3.40
2018-05-04T12:06:04.952Z,4.22
2018-05-04T12:08:33.757Z,4.70
2018-05-04T12:11:02.548Z,4.30
2018-05-04T12:13:31.313Z,2.57
2018-05-04T12:16:00.330Z,2.30
2018-05-04T12:18:29.009Z,3.03
2018-05-04T12:20:57.653Z,3.05
2018-05-04T12:23:25.955Z,2.70
2018-05-04T12:25:54.239Z,3.37
2018-05-04T12:28:22.500Z,3.67
2018-05-04T12:30:50.820Z,3.22
2018-05-04T12:33:21.063Z,5.25
2018-05-04T12:35:50.094Z,3.53
2018-05-04T12:38:18.311Z,4.22
2018-05-04T12:40:47.369Z,4.82
2018-05-04T12:43:15.645Z,7.03
2018-05-04T12:45:43.949Z,3.05
2018-05-04T12:48:12.977Z,4.40
2018-05-04T12:50:41.269Z,3.72
2018-05-04T12:53:09.561Z,5.78
2018-05-04T12:55:37.825Z,3.83
2018-05-04T12:58:06.097Z,2.67
2018-05-04T13:00:34.393Z,3.75
2018-05-04T13:03:02.702Z,4.45
2018-05-04T13:05:30.950Z,3.78
2018-05-04T13:07:59.225Z,3.05
2018-05-04T13:10:27.610Z,2.67
2018-05-04T13:12:55.921Z,3.90
2018-05-04T13:15:24.231Z,2.78
2018-05-04T13:17:52.491Z,2.72
2018-05-04T13:20:20.769Z,3.78
2018-05-04T13:22:49.085Z,6.13
2018-05-04T13:25:17.324Z,3.33
2018-05-04T13:27:45.600Z,3.17
2018-05-04T13:30:13.898Z,4.43
2018-05-04T13:32:42.163Z,3.58
2018-05-04T13:35:10.405Z,4.20
2018-05-04T13:37:39.466Z,2.65
2018-05-04T13:40:07.743Z,3.33
2018-05-04T13:42:36.044Z,3.40
2018-05-04T13:45:05.167Z,3.30
2018-05-04T13:47:34.164Z,2.50
2018-05-04T13:50:02.410Z,2.70
2018-05-04T13:52:31.491Z,4.53
2018-05-04T13:54:59.727Z,3.17
2018-05-04T13:57:28.030Z,4.05
2018-05-04T13:59:56.315Z,6.62
2018-05-04T14:02:24.851Z,3.28
2018-05-04T14:04:53.130Z,2.62
2018-05-04T14:07:21.422Z,2.37
2018-05-04T14:09:49.857Z,2.53
2018-05-04T14:12:18.908Z,4.43
2018-05-04T14:14:47.196Z,3.03
2018-05-04T14:17:15.787Z,2.67
2018-05-04T14:19:44.605Z,2.22
2018-05-04T14:22:13.256Z,3.70
2018-05-04T14:24:42.285Z,3.75
2018-05-04T14:27:11.203Z,2.83
2018-05-04T14:29:39.928Z,2.67
2018-05-04T14:32:08.721Z,2.72
2018-05-04T14:34:37.509Z,1.70
2018-05-04T14:37:06.191Z,3.30
2018-05-04T14:39:34.875Z,3.90
2018-05-04T14:42:04.291Z,3.42
2018-05-04T14:44:33.068Z,3.90
2018-05-04T14:47:02.447Z,3.57
2018-05-04T14:49:31.160Z,3.20
2018-05-04T14:52:01.380Z,4.35
2018-05-04T14:54:30.067Z,3.17
2018-05-04T14:56:58.647Z,6.43
2018-05-04T14:59:27.291Z,3.47
2018-05-04T15:01:56.836Z,3.42
2018-05-04T15:04:25.527Z,3.22
2018-05-04T15:06:54.310Z,3.00
2018-05-04T15:09:23.000Z,4.03
2018-05-04T15:11:51.359Z,3.95
2018-05-04T15:14:19.627Z,2.87
2018-05-04T15:16:47.903Z,4.50
2018-05-04T15:19:16.295Z,4.30
2018-05-04T15:21:44.586Z,3.58
2018-05-04T15:24:12.862Z,3.90
2018-05-04T15:26:41.132Z,5.90
2018-05-04T15:29:09.401Z,3.72
2018-05-04T15:31:37.664Z,4.87
2018-05-04T15:34:05.953Z,4.47
2018-05-04T15:36:34.239Z,3.58
2018-05-04T15:39:02.514Z,4.90
2018-05-04T15:41:30.787Z,4.28
2018-05-04T15:43:59.157Z,4.72
2018-05-04T15:46:27.387Z,3.25
2018-05-04T15:49:01.361Z,4.72
2018-05-04T15:51:35.227Z,4.35
2018-05-04T15:54:03.551Z,5.15
2018-05-04T15:56:31.806Z,6.10
2018-05-04T15:59:00.083Z,3.47
2018-05-04T16:01:28.334Z,5.32
2018-05-04T16:03:56.687Z,4.78
2018-05-04T16:06:24.972Z,3.58
2018-05-04T16:08:53.220Z,3.95
2018-05-04T16:11:22.301Z,4.85
2018-05-04T16:13:50.546Z,5.53
2018-05-04T16:16:18.837Z,5.07
2018-05-04T16:18:47.212Z,4.00
2018-05-04T16:21:17.201Z,3.78
2018-05-04T16:23:45.499Z,4.45
2018-05-04T16:26:13.803Z,4.12
2018-05-04T16:28:43.564Z,7.62
2018-05-04T16:31:11.824Z,5.90
2018-05-04T16:33:40.147Z,6.35
2018-05-04T16:36:08.379Z,7.82
2018-05-04T16:38:36.651Z,6.22
2018-05-04T16:41:04.988Z,7.12
2018-05-04T16:43:33.241Z,6.20
2018-05-04T16:46:01.519Z,8.18
2018-05-04T16:48:35.494Z,8.85
2018-05-04T16:51:03.764Z,9.00
2018-05-04T16:53:32.106Z,8.57
2018-05-04T16:56:00.355Z,8.13
2018-05-04T16:58:28.638Z,8.70
2018-05-04T17:00:56.917Z,6.03
2018-05-04T17:03:25.171Z,7.40
2018-05-04T17:05:53.419Z,7.10
2018-05-04T17:08:21.704Z,8.30
2018-05-04T17:10:49.951Z,9.18
2018-05-04T17:13:18.997Z,6.50
2018-05-04T17:15:47.361Z,8.57
2018-05-04T17:18:15.535Z,8.73
2018-05-04T17:20:43.801Z,6.70
2018-05-04T17:23:12.114Z,5.40
2018-05-04T17:25:40.567Z,7.20
2018-05-04T17:28:09.046Z,4.20
2018-05-04T17:30:37.309Z,6.53
2018-05-04T17:33:05.555Z,8.50
2018-05-04T17:35:34.621Z,6.87
2018-05-04T17:38:02.915Z,5.13
2018-05-04T17:40:31.320Z,7.63
2018-05-04T17:42:59.649Z,5.23
2018-05-04T17:45:27.897Z,6.73
2018-05-04T17:47:57.576Z,8.73
2018-05-04T17:50:25.908Z,7.50
2018-05-04T17:52:54.169Z,6.23
2018-05-04T17:55:22.435Z,8.97
2018-05-04T17:57:50.753Z,10.43
2018-05-04T18:00:19.047Z,10.37
2018-05-04T18:02:48.087Z,13.97
2018-05-04T18:05:16.384Z,12.27
2018-05-04T18:07:44.694Z,10.93
2018-05-04T18:10:13.721Z,10.80
2018-05-04T18:12:41.981Z,8.70
2018-05-04T18:15:11.020Z,10.57
2018-05-04T18:17:39.270Z,7.47
2018-05-04T18:20:07.555Z,11.20
2018-05-04T18:22:37.183Z,7.43
2018-05-04T18:25:05.491Z,8.23
2018-05-04T18:27:34.530Z,7.77
2018-05-04T18:30:02.803Z,8.00
2018-05-04T18:32:31.086Z,6.00
2018-05-04T18:34:59.350Z,8.90
2018-05-04T18:37:27.602Z,5.80
2018-05-04T18:39:55.917Z,7.57
2018-05-04T18:42:24.190Z,9.00
2018-05-04T18:44:52.470Z,7.90
2018-05-04T18:47:20.755Z,11.50
2018-05-04T18:49:49.041Z,8.33
2018-05-04T18:52:17.319Z,8.87
2018-05-04T18:54:45.611Z,9.73
2018-05-04T18:57:13.904Z,7.43
2018-05-04T18:59:42.983Z,7.87
2018-05-04T19:02:11.242Z,7.97
2018-05-04T19:04:39.506Z,9.10
2018-05-04T19:07:07.810Z,8.20
2018-05-04T19:09:36.105Z,8.40
2018-05-04T19:12:04.346Z,6.93
2018-05-04T19:14:32.713Z,9.80
2018-05-04T19:17:01.032Z,7.47
2018-05-04T19:19:29.322Z,8.27
2018-05-04T19:21:58.370Z,8.17
2018-05-04T19:24:26.667Z,5.37
2018-05-04T19:26:54.967Z,6.23
2018-05-04T19:29:23.280Z,8.77
2018-05-04T19:31:52.396Z,10.43
2018-05-04T19:34:20.786Z,6.70
2018-05-04T19:36:49.059Z,8.17
2018-05-04T19:39:17.349Z,10.80
2018-05-04T19:41:45.662Z,8.27
2018-05-04T19:44:13.995Z,6.50
2018-05-04T19:46:42.296Z,6.70
2018-05-04T19:49:11.334Z,5.87
2018-05-04T19:51:39.615Z,10.40
2018-05-04T19:54:08.025Z,9.00
2018-05-04T19:56:36.323Z,6.40
2018-05-04T19:59:05.328Z,6.77
2018-05-04T20:01:33.635Z,5.00
2018-05-04T20:04:01.933Z,6.53
2018-05-04T20:06:30.199Z,5.57
2018-05-04T20:08:59.468Z,5.80
2018-05-04T20:11:27.839Z,5.33
2018-05-04T20:13:56.236Z,7.43
2018-05-04T20:16:24.588Z,7.90
2018-05-04T20:18:53.039Z,5.72
2018-05-04T20:21:22.092Z,4.13
2018-05-04T20:23:50.406Z,4.73
2018-05-04T20:26:18.786Z,6.43
2018-05-04T20:28:47.034Z,7.47
2018-05-04T20:31:15.366Z,6.03
2018-05-04T20:33:44.451Z,3.57
2018-05-04T20:36:13.498Z,6.37
2018-05-04T20:38:42.801Z,10.13
2018-05-04T20:41:11.065Z,4.20
2018-05-04T20:43:39.317Z,5.67
2018-05-04T20:46:08.216Z,5.77
2018-05-04T20:48:36.483Z,6.10
2018-05-04T20:51:04.715Z,5.33
2018-05-04T20:53:33.076Z,4.83
2018-05-04T20:56:01.341Z,5.63
2018-05-04T20:58:29.655Z,7.43
2018-05-04T21:00:58.016Z,5.17
2018-05-04T21:03:26.298Z,6.87
2018-05-04T21:05:54.550Z,4.77
2018-05-04T21:08:22.871Z,6.40
2018-05-04T21:10:51.122Z,3.67
2018-05-04T21:13:19.389Z,4.40
2018-05-04T21:15:47.692Z,7.20
2018-05-04T21:18:15.946Z,4.82
2018-05-04T21:20:44.207Z,5.97
2018-05-04T21:23:12.532Z,6.00
2018-05-04T21:25:40.921Z,6.13
2018-05-04T21:28:09.966Z,5.13
2018-05-04T21:30:38.267Z,6.60
2018-05-04T21:33:06.588Z,4.10
2018-05-04T21:35:34.859Z,7.40
2018-05-04T21:38:03.179Z,8.63
2018-05-04T21:40:33.881Z,7.30
2018-05-04T21:43:02.160Z,5.07
2018-05-04T21:45:30.443Z,6.37
2018-05-04T21:47:58.712Z,6.47
2018-05-04T21:50:26.934Z,5.83
2018-05-04T21:52:56.000Z,4.40
2018-05-04T21:55:24.259Z,6.30
2018-05-04T21:57:52.488Z,3.63
2018-05-04T22:00:21.578Z,5.17
2018-05-04T22:02:49.919Z,4.50
2018-05-04T22:05:18.232Z,4.27
2018-05-04T22:07:46.555Z,4.50
2018-05-04T22:10:14.784Z,7.37
2018-05-04T22:12:44.726Z,3.67
2018-05-04T22:15:14.390Z,4.77
2018-05-04T22:17:42.666Z,4.30
2018-05-04T22:20:10.935Z,4.70
2018-05-04T22:22:39.205Z,4.70
2018-05-04T22:25:07.462Z,7.13
2018-05-04T22:27:35.756Z,7.87
2018-05-04T22:30:05.180Z,7.15
2018-05-04T22:32:35.598Z,4.33
2018-05-04T22:35:05.178Z,5.43
2018-05-04T22:37:35.090Z,4.63
2018-05-04T22:40:03.914Z,3.60
2018-05-04T22:42:32.812Z,4.23
2018-05-04T22:45:01.265Z,5.33
2018-05-04T22:47:29.504Z,5.00
2018-05-04T22:49:58.622Z,4.00
2018-05-04T22:52:26.887Z,4.47
2018-05-04T22:54:55.168Z,3.87
2018-05-04T22:57:23.451Z,4.40
2018-05-04T22:59:52.895Z,4.40
2018-05-04T23:02:21.181Z,4.53
2018-05-04T23:04:51.482Z,6.00
2018-05-04T23:07:20.785Z,5.00
2018-05-04T23:09:50.262Z,4.07
2018-05-04T23:12:18.523Z,4.00
2018-05-04T23:14:46.772Z,5.37
2018-05-04T23:17:15.020Z,4.73
2018-05-04T23:19:44.047Z,4.93
2018-05-04T23:22:24.191Z,4.33
2018-05-04T23:24:53.239Z,5.30
2018-05-04T23:27:21.497Z,5.00
2018-05-04T23:29:49.738Z,3.67
2018-05-04T23:32:18.779Z,4.13
2018-05-04T23:34:47.058Z,9.30
2018-05-04T23:37:15.305Z,4.83
2018-05-04T23:39:43.603Z,3.23
2018-05-04T23:42:11.858Z,6.73
2018-05-04T23:44:40.110Z,8.37
2018-05-04T23:47:09.632Z,7.53
2018-05-04T23:49:37.931Z,6.73
2018-05-04T23:52:06.210Z,3.10
2018-05-04T23:54:37.350Z,6.50
2018-05-04T23:57:06.098Z,4.07
2018-05-04T23:59:35.288Z,6.20
